Arcadia, Utah
Current Conditions -  °F | °C
As of 11:53 AM on Thursday 23 Oct 2014 (Local Time) from KPUC Reporting Station
Clear Clear  
Wind Chill: 60°   Ceiling: Unl
Heat Index: 60°   Visibility: 10mi
Dew Point: 31°   Wind: 6mph
Humidity: 33%   Direction: 120°ESE
Pressure: 30.28"   Gusts: NA
Location:  39.9707°N, 110.477°W
Report Text: KPUC 231753Z AUTO 12005KT 10SM CLR 16/M01 A3028 RMK AO2 SLP228 T01561006 10156 20044 50003 TSNO
Loading
Personal Weather Stations






























Interactive Weather Map
Tropical Storm Tracking
New forecast layout! Learn more

10-Day Weather Forecast

Advertisements
Track Severe Weather on mobile